EJU19EG LIML-LOWI
Flight info
| Callsign | EJU19EG |
|---|---|
| Flight time | 0h 35m |
| Altitude | 30000 |
| Route | NESTI M985 TAGIP T876 EKPIS M726 INN Y703 RTT RTT1B |
| Aircraft | A320/M-SDE3FGHIRWY/LB1 |
Departure
| Time | 2026-05-06 19:39 |
|---|---|
| Airport | Milano Linate Airport (LIML) |
Arrival
| Time | 2026-05-06 20:14 |
|---|---|
| Airport | Innsbruck Airport (LOWI) |
| Time | Latitude | Longitude | Altitude | Speed | Heading |
|---|---|---|---|---|---|
| 2026-05-06 19:18 | 45.45674 | 9.28073 | 363 ft | 0 kts | 90° |
| 2026-05-06 19:34 | 45.45674 | 9.28106 | 361 ft | 8 kts | 90° |
| 2026-05-06 19:34 | 45.45629 | 9.28157 | 362 ft | 12 kts | 178° |
| 2026-05-06 19:34 | 45.45520 | 9.28157 | 360 ft | 19 kts | 181° |
| 2026-05-06 19:35 | 45.45388 | 9.28149 | 360 ft | 19 kts | 183° |
| 2026-05-06 19:35 | 45.45257 | 9.28068 | 362 ft | 23 kts | 206° |
| 2026-05-06 19:35 | 45.45085 | 9.28060 | 363 ft | 27 kts | 176° |
| 2026-05-06 19:35 | 45.44941 | 9.27988 | 365 ft | 19 kts | 269° |
| 2026-05-06 19:36 | 45.44898 | 9.27930 | 360 ft | 11 kts | 173° |
| 2026-05-06 19:36 | 45.44804 | 9.27943 | 364 ft | 19 kts | 175° |
| 2026-05-06 19:36 | 45.44632 | 9.27962 | 362 ft | 31 kts | 175° |
| 2026-05-06 19:36 | 45.44396 | 9.27990 | 360 ft | 35 kts | 175° |
| 2026-05-06 19:37 | 45.44151 | 9.28015 | 360 ft | 35 kts | 175° |
| 2026-05-06 19:37 | 45.43903 | 9.28044 | 364 ft | 36 kts | 175° |
| 2026-05-06 19:37 | 45.43657 | 9.28072 | 365 ft | 36 kts | 176° |
| 2026-05-06 19:37 | 45.43450 | 9.28054 | 361 ft | 22 kts | 229° |
| 2026-05-06 19:38 | 45.43451 | 9.27885 | 362 ft | 15 kts | 273° |
| 2026-05-06 19:38 | 45.43510 | 9.27815 | 366 ft | 13 kts | 354° |
| 2026-05-06 19:38 | 45.43619 | 9.27799 | 361 ft | 26 kts | 354° |
| 2026-05-06 19:38 | 45.44062 | 9.27755 | 361 ft | 99 kts | 356° |
| 2026-05-06 19:39 | 45.44945 | 9.27674 | 376 ft | 151 kts | 0° |
| 2026-05-06 19:39 | 45.45951 | 9.27583 | 1028 ft | 144 kts | 357° |
| 2026-05-06 19:39 | 45.46972 | 9.27529 | 1521 ft | 147 kts | 8° |
| 2026-05-06 19:39 | 45.48013 | 9.27620 | 1862 ft | 160 kts | 12° |
| 2026-05-06 19:40 | 45.49216 | 9.27840 | 1975 ft | 192 kts | 10° |
| 2026-05-06 19:40 | 45.50636 | 9.28106 | 2219 ft | 218 kts | 8° |
| 2026-05-06 19:40 | 45.52225 | 9.28395 | 2599 ft | 242 kts | 10° |
| 2026-05-06 19:40 | 45.53868 | 9.29277 | 3006 ft | 265 kts | 29° |
| 2026-05-06 19:41 | 45.55528 | 9.30558 | 3745 ft | 275 kts | 28° |
| 2026-05-06 19:41 | 45.57234 | 9.31867 | 4583 ft | 281 kts | 29° |
| 2026-05-06 19:41 | 45.58981 | 9.33197 | 5398 ft | 287 kts | 28° |
| 2026-05-06 19:41 | 45.60744 | 9.34536 | 6341 ft | 288 kts | 28° |
| 2026-05-06 19:42 | 45.62521 | 9.35884 | 7182 ft | 291 kts | 28° |
| 2026-05-06 19:42 | 45.64300 | 9.37232 | 8022 ft | 295 kts | 28° |
| 2026-05-06 19:42 | 45.66107 | 9.38664 | 8994 ft | 299 kts | 34° |
| 2026-05-06 19:42 | 45.67702 | 9.40602 | 9738 ft | 304 kts | 48° |
| 2026-05-06 19:43 | 45.69007 | 9.42999 | 9976 ft | 305 kts | 55° |
| 2026-05-06 19:43 | 45.70279 | 9.45501 | 10033 ft | 324 kts | 55° |
| 2026-05-06 19:43 | 45.71661 | 9.48220 | 10023 ft | 351 kts | 54° |
| 2026-05-06 19:43 | 45.73132 | 9.51107 | 10443 ft | 364 kts | 54° |
| 2026-05-06 19:44 | 45.74613 | 9.54095 | 11079 ft | 370 kts | 59° |
| 2026-05-06 19:44 | 45.75736 | 9.57422 | 11750 ft | 374 kts | 72° |
| 2026-05-06 19:44 | 45.76341 | 9.61046 | 12439 ft | 376 kts | 85° |
| 2026-05-06 19:44 | 45.76554 | 9.64786 | 13176 ft | 379 kts | 88° |
| 2026-05-06 19:45 | 45.76749 | 9.68567 | 13864 ft | 383 kts | 88° |
| 2026-05-06 19:45 | 45.76950 | 9.72396 | 14439 ft | 387 kts | 88° |
| 2026-05-06 19:45 | 45.77156 | 9.76258 | 15054 ft | 391 kts | 88° |
| 2026-05-06 19:45 | 45.77364 | 9.80160 | 15641 ft | 395 kts | 88° |
| 2026-05-06 19:46 | 45.77573 | 9.84092 | 16251 ft | 398 kts | 88° |
| 2026-05-06 19:46 | 45.77781 | 9.88065 | 16817 ft | 402 kts | 89° |
| 2026-05-06 19:46 | 45.77988 | 9.92089 | 17378 ft | 407 kts | 89° |
| 2026-05-06 19:46 | 45.78193 | 9.96157 | 17929 ft | 411 kts | 89° |
| 2026-05-06 19:47 | 45.78399 | 10.00239 | 18351 ft | 415 kts | 89° |
| 2026-05-06 19:47 | 45.78617 | 10.04386 | 18859 ft | 420 kts | 87° |
| 2026-05-06 19:47 | 45.79286 | 10.08497 | 19348 ft | 430 kts | 70° |
| 2026-05-06 19:47 | 45.80787 | 10.12233 | 19832 ft | 438 kts | 51° |
| 2026-05-06 19:48 | 45.83033 | 10.15210 | 20290 ft | 443 kts | 36° |
| 2026-05-06 19:48 | 45.85542 | 10.17816 | 20760 ft | 447 kts | 35° |
| 2026-05-06 19:48 | 45.88081 | 10.20428 | 21228 ft | 451 kts | 35° |
| 2026-05-06 19:48 | 45.90610 | 10.23028 | 21662 ft | 455 kts | 35° |
| 2026-05-06 19:49 | 45.93193 | 10.25697 | 22139 ft | 458 kts | 36° |
| 2026-05-06 19:49 | 45.95786 | 10.28394 | 22608 ft | 461 kts | 36° |
| 2026-05-06 19:49 | 45.98390 | 10.31114 | 23025 ft | 465 kts | 36° |
| 2026-05-06 19:49 | 46.01020 | 10.33866 | 23407 ft | 469 kts | 36° |
| 2026-05-06 19:50 | 46.03669 | 10.36643 | 23674 ft | 475 kts | 35° |
| 2026-05-06 19:50 | 46.06356 | 10.39460 | 23943 ft | 481 kts | 34° |
| 2026-05-06 19:50 | 46.09077 | 10.42317 | 24249 ft | 485 kts | 35° |
| 2026-05-06 19:50 | 46.11813 | 10.45192 | 24622 ft | 488 kts | 35° |
| 2026-05-06 19:51 | 46.14565 | 10.48089 | 24939 ft | 491 kts | 35° |
| 2026-05-06 19:51 | 46.17332 | 10.51002 | 25280 ft | 494 kts | 35° |
| 2026-05-06 19:51 | 46.20117 | 10.53939 | 25564 ft | 497 kts | 35° |
| 2026-05-06 19:51 | 46.22911 | 10.56892 | 25869 ft | 501 kts | 35° |
| 2026-05-06 19:52 | 46.25731 | 10.59872 | 26150 ft | 503 kts | 35° |
| 2026-05-06 19:52 | 46.28563 | 10.62871 | 26429 ft | 506 kts | 35° |
| 2026-05-06 19:52 | 46.31418 | 10.65890 | 26724 ft | 509 kts | 35° |
| 2026-05-06 19:52 | 46.34291 | 10.68909 | 27007 ft | 512 kts | 36° |
| 2026-05-06 19:53 | 46.37159 | 10.71903 | 26932 ft | 520 kts | 35° |
| 2026-05-06 19:53 | 46.40134 | 10.75026 | 26412 ft | 521 kts | 35° |
| 2026-05-06 19:53 | 46.43022 | 10.78069 | 25860 ft | 517 kts | 35° |
| 2026-05-06 19:53 | 46.45918 | 10.81112 | 25315 ft | 511 kts | 35° |
| 2026-05-06 19:54 | 46.48764 | 10.84151 | 24775 ft | 504 kts | 37° |
| 2026-05-06 19:54 | 46.51614 | 10.87046 | 24253 ft | 497 kts | 31° |
| 2026-05-06 19:54 | 46.54586 | 10.89545 | 23729 ft | 491 kts | 27° |
| 2026-05-06 19:54 | 46.57543 | 10.91989 | 23160 ft | 486 kts | 30° |
| 2026-05-06 19:55 | 46.60392 | 10.94583 | 22534 ft | 481 kts | 33° |
| 2026-05-06 19:55 | 46.63107 | 10.97380 | 21916 ft | 474 kts | 37° |
| 2026-05-06 19:55 | 46.65694 | 11.00318 | 21290 ft | 470 kts | 39° |
| 2026-05-06 19:55 | 46.68208 | 11.03325 | 20704 ft | 466 kts | 40° |
| 2026-05-06 19:56 | 46.70659 | 11.06290 | 20117 ft | 461 kts | 40° |
| 2026-05-06 19:56 | 46.73160 | 11.09268 | 19535 ft | 457 kts | 39° |
| 2026-05-06 19:56 | 46.75731 | 11.11946 | 18969 ft | 452 kts | 28° |
| 2026-05-06 19:56 | 46.78612 | 11.13649 | 18418 ft | 446 kts | 13° |
| 2026-05-06 19:57 | 46.81638 | 11.14484 | 17815 ft | 439 kts | 9° |
| 2026-05-06 19:57 | 46.84591 | 11.15262 | 17203 ft | 434 kts | 3° |
| 2026-05-06 19:57 | 46.87573 | 11.15039 | 16595 ft | 426 kts | 346° |
| 2026-05-06 19:57 | 46.90339 | 11.13655 | 16060 ft | 417 kts | 329° |
| 2026-05-06 19:58 | 46.92674 | 11.11317 | 15857 ft | 398 kts | 314° |
| 2026-05-06 19:58 | 46.94470 | 11.08407 | 15873 ft | 375 kts | 304° |
| 2026-05-06 19:58 | 46.96057 | 11.05480 | 15869 ft | 360 kts | 304° |
| 2026-05-06 19:58 | 46.97585 | 11.02663 | 15870 ft | 346 kts | 304° |
| 2026-05-06 19:59 | 46.99049 | 10.99959 | 15874 ft | 332 kts | 304° |
| 2026-05-06 19:59 | 47.00456 | 10.97351 | 15870 ft | 322 kts | 303° |
| 2026-05-06 19:59 | 47.01831 | 10.94786 | 15871 ft | 319 kts | 303° |
| 2026-05-06 19:59 | 47.03198 | 10.92226 | 15866 ft | 319 kts | 303° |
| 2026-05-06 20:00 | 47.04559 | 10.89666 | 15865 ft | 318 kts | 303° |
| 2026-05-06 20:00 | 47.05924 | 10.87096 | 15874 ft | 319 kts | 303° |
| 2026-05-06 20:00 | 47.07290 | 10.84529 | 15871 ft | 319 kts | 303° |
| 2026-05-06 20:00 | 47.08659 | 10.81962 | 15875 ft | 318 kts | 303° |
| 2026-05-06 20:01 | 47.10021 | 10.79408 | 15872 ft | 317 kts | 303° |
| 2026-05-06 20:01 | 47.11382 | 10.76854 | 15656 ft | 317 kts | 303° |
| 2026-05-06 20:01 | 47.12721 | 10.74336 | 15435 ft | 317 kts | 304° |
| 2026-05-06 20:01 | 47.14100 | 10.71746 | 15188 ft | 321 kts | 304° |
| 2026-05-06 20:02 | 47.15463 | 10.69222 | 14929 ft | 307 kts | 304° |
| 2026-05-06 20:02 | 47.16762 | 10.66837 | 14682 ft | 292 kts | 304° |
| 2026-05-06 20:02 | 47.18013 | 10.64559 | 14436 ft | 280 kts | 304° |
| 2026-05-06 20:02 | 47.19208 | 10.62403 | 14194 ft | 266 kts | 305° |
| 2026-05-06 20:03 | 47.20354 | 10.60342 | 13977 ft | 255 kts | 304° |
| 2026-05-06 20:03 | 47.21458 | 10.58376 | 13783 ft | 243 kts | 304° |
| 2026-05-06 20:03 | 47.22511 | 10.56530 | 13513 ft | 229 kts | 306° |
| 2026-05-06 20:03 | 47.23778 | 10.55143 | 13228 ft | 231 kts | 332° |
| 2026-05-06 20:04 | 47.25368 | 10.54748 | 13070 ft | 237 kts | 3° |
| 2026-05-06 20:04 | 47.26923 | 10.55529 | 13060 ft | 240 kts | 33° |
| 2026-05-06 20:04 | 47.28099 | 10.57245 | 13055 ft | 239 kts | 61° |
| 2026-05-06 20:04 | 47.28651 | 10.59466 | 13056 ft | 233 kts | 88° |
| 2026-05-06 20:05 | 47.28744 | 10.61837 | 13076 ft | 233 kts | 91° |
| 2026-05-06 20:05 | 47.28837 | 10.64218 | 13068 ft | 233 kts | 91° |
| 2026-05-06 20:05 | 47.28936 | 10.66604 | 13040 ft | 233 kts | 91° |
| 2026-05-06 20:05 | 47.29036 | 10.68984 | 12977 ft | 234 kts | 91° |
| 2026-05-06 20:06 | 47.29133 | 10.71412 | 12478 ft | 242 kts | 90° |
| 2026-05-06 20:06 | 47.29231 | 10.73833 | 12279 ft | 232 kts | 90° |
| 2026-05-06 20:06 | 47.29328 | 10.76176 | 12035 ft | 227 kts | 90° |
| 2026-05-06 20:06 | 47.29422 | 10.78488 | 11753 ft | 225 kts | 91° |
| 2026-05-06 20:07 | 47.29512 | 10.80781 | 11443 ft | 224 kts | 91° |
| 2026-05-06 20:07 | 47.29601 | 10.83060 | 11107 ft | 222 kts | 90° |
| 2026-05-06 20:07 | 47.29691 | 10.85322 | 10770 ft | 221 kts | 90° |
| 2026-05-06 20:07 | 47.29778 | 10.87566 | 10389 ft | 218 kts | 90° |
| 2026-05-06 20:08 | 47.29862 | 10.89806 | 10071 ft | 219 kts | 90° |
| 2026-05-06 20:08 | 47.29945 | 10.92019 | 9800 ft | 215 kts | 90° |
| 2026-05-06 20:08 | 47.30028 | 10.94204 | 9464 ft | 213 kts | 90° |
| 2026-05-06 20:08 | 47.30112 | 10.96371 | 9119 ft | 212 kts | 90° |
| 2026-05-06 20:09 | 47.30193 | 10.98527 | 8802 ft | 210 kts | 91° |
| 2026-05-06 20:09 | 47.30272 | 11.00630 | 8601 ft | 201 kts | 89° |
| 2026-05-06 20:09 | 47.30349 | 11.02629 | 8448 ft | 190 kts | 89° |
| 2026-05-06 20:09 | 47.30421 | 11.04537 | 8186 ft | 183 kts | 88° |
| 2026-05-06 20:10 | 47.30489 | 11.06396 | 7763 ft | 181 kts | 89° |
| 2026-05-06 20:10 | 47.30500 | 11.08234 | 7265 ft | 179 kts | 99° |
| 2026-05-06 20:10 | 47.30200 | 11.09985 | 6992 ft | 177 kts | 111° |
| 2026-05-06 20:10 | 47.29712 | 11.11643 | 6747 ft | 177 kts | 115° |
| 2026-05-06 20:11 | 47.29215 | 11.13297 | 6535 ft | 176 kts | 114° |
| 2026-05-06 20:11 | 47.28723 | 11.14963 | 6367 ft | 176 kts | 114° |
| 2026-05-06 20:11 | 47.28256 | 11.16558 | 6172 ft | 164 kts | 113° |
| 2026-05-06 20:11 | 47.27818 | 11.18056 | 5859 ft | 158 kts | 113° |
| 2026-05-06 20:12 | 47.27387 | 11.19544 | 5357 ft | 161 kts | 113° |
| 2026-05-06 20:12 | 47.26947 | 11.21064 | 4868 ft | 161 kts | 115° |
| 2026-05-06 20:12 | 47.26427 | 11.22501 | 4419 ft | 158 kts | 121° |
| 2026-05-06 20:12 | 47.25837 | 11.23871 | 3981 ft | 160 kts | 121° |
| 2026-05-06 20:13 | 47.25371 | 11.25362 | 3525 ft | 163 kts | 103° |
| 2026-05-06 20:13 | 47.25302 | 11.27049 | 2949 ft | 170 kts | 84° |
| 2026-05-06 20:13 | 47.25437 | 11.28735 | 2613 ft | 160 kts | 82° |
| 2026-05-06 20:13 | 47.25613 | 11.30317 | 2327 ft | 152 kts | 85° |
| 2026-05-06 20:14 | 47.25767 | 11.31815 | 2092 ft | 144 kts | 85° |
| 2026-05-06 20:14 | 47.25909 | 11.33267 | 1930 ft | 142 kts | 85° |
| 2026-05-06 20:14 | 47.26031 | 11.34558 | 1906 ft | 104 kts | 83° |
| 2026-05-06 20:14 | 47.26098 | 11.35171 | 1899 ft | 16 kts | 79° |
| 2026-05-06 20:15 | 47.26064 | 11.35259 | 1900 ft | 11 kts | 167° |
| 2026-05-06 20:15 | 47.25984 | 11.35277 | 1902 ft | 10 kts | 172° |
| 2026-05-06 20:15 | 47.25915 | 11.35288 | 1907 ft | 10 kts | 187° |
| 2026-05-06 20:15 | 47.25896 | 11.35199 | 1907 ft | 9 kts | 259° |
| 2026-05-06 20:16 | 47.25888 | 11.35152 | 1902 ft | 5 kts | 259° |
| 2026-05-06 20:16 | 47.25878 | 11.35070 | 1893 ft | 8 kts | 261° |
| 2026-05-06 20:16 | 47.25852 | 11.35050 | 1902 ft | 4 kts | 173° |
| 2026-05-06 20:16 | 47.25829 | 11.35049 | 1907 ft | 3 kts | 178° |
| 2026-05-06 20:17 | 47.25821 | 11.35052 | 1904 ft | 0 kts | 168° |